createdAt,value
2023-01-23T00:01:30.894Z,32.70
2023-01-23T00:03:35.186Z,32.70
2023-01-23T00:05:39.243Z,32.90
2023-01-23T00:07:40.898Z,32.60
2023-01-23T00:09:46.648Z,32.40
2023-01-23T00:11:48.406Z,32.60
2023-01-23T00:13:50.964Z,33.00
2023-01-23T00:15:55.256Z,33.60
2023-01-23T00:17:59.356Z,33.00
2023-01-23T00:20:02.507Z,32.70
2023-01-23T00:22:04.299Z,32.80
2023-01-23T00:24:06.502Z,32.70
2023-01-23T00:26:12.356Z,32.70
2023-01-23T00:28:15.513Z,32.80
2023-01-23T00:30:17.736Z,32.50
2023-01-23T00:32:20.149Z,32.60
2023-01-23T00:34:21.827Z,32.80
2023-01-23T00:36:24.307Z,32.80
2023-01-23T00:38:26.268Z,32.90
2023-01-23T00:40:27.967Z,32.90
2023-01-23T00:42:29.691Z,32.90
2023-01-23T00:44:34.998Z,32.60
2023-01-23T00:46:36.745Z,33.00
2023-01-23T00:48:38.464Z,32.90
2023-01-23T00:50:40.141Z,32.50
2023-01-23T00:52:41.839Z,32.50
2023-01-23T00:54:45.778Z,32.70
2023-01-23T00:56:48.135Z,32.60
2023-01-23T00:58:50.216Z,32.50
2023-01-23T01:00:52.414Z,32.50
2023-01-23T01:02:54.332Z,32.60
2023-01-23T01:04:58.588Z,32.50
2023-01-23T01:07:00.363Z,32.40
2023-01-23T01:09:05.520Z,32.40
2023-01-23T01:11:07.870Z,32.30
2023-01-23T01:13:10.639Z,32.30
2023-01-23T01:15:15.794Z,32.20
2023-01-23T01:17:17.504Z,32.30
2023-01-23T01:19:19.861Z,32.20
2023-01-23T01:21:21.624Z,32.40
2023-01-23T01:23:23.275Z,32.20
2023-01-23T01:25:25.603Z,32.30
2023-01-23T01:27:29.210Z,32.50
2023-01-23T01:29:31.067Z,32.50
2023-01-23T01:31:32.926Z,32.30
2023-01-23T01:33:34.800Z,32.20
2023-01-23T01:35:39.721Z,32.20
2023-01-23T01:37:44.699Z,32.50
2023-01-23T01:39:48.226Z,32.50
2023-01-23T01:41:50.151Z,32.40
2023-01-23T01:43:53.828Z,32.40
2023-01-23T01:46:21.212Z,32.70
2023-01-23T01:48:27.363Z,32.50
2023-01-23T01:50:29.077Z,32.30
2023-01-23T01:52:31.059Z,32.40
2023-01-23T01:54:54.634Z,32.50
2023-01-23T01:57:08.395Z,32.40
2023-01-23T01:59:11.850Z,32.30
2023-01-23T02:01:14.026Z,32.50
2023-01-23T02:03:19.545Z,32.60
2023-01-23T02:05:46.469Z,32.40
2023-01-23T02:07:56.557Z,32.50
2023-01-23T02:09:58.444Z,32.40
2023-01-23T02:12:04.349Z,32.30
2023-01-23T02:14:07.033Z,32.80
2023-01-23T02:16:15.081Z,32.60
2023-01-23T02:18:17.475Z,32.90
2023-01-23T02:20:30.701Z,32.90
2023-01-23T02:22:46.935Z,32.90
2023-01-23T02:25:04.448Z,32.90
2023-01-23T02:27:06.159Z,32.90
2023-01-23T02:29:08.218Z,32.80
2023-01-23T02:31:19.335Z,32.80
2023-01-23T02:33:22.047Z,32.90
2023-01-23T02:35:30.591Z,32.90
2023-01-23T02:37:40.819Z,32.90
2023-01-23T02:39:45.477Z,32.90
2023-01-23T02:41:50.324Z,33.40
2023-01-23T02:43:56.051Z,32.70
2023-01-23T02:45:57.818Z,32.70
2023-01-23T02:48:01.412Z,32.70
2023-01-23T02:50:03.625Z,32.70
2023-01-23T02:52:06.501Z,32.40
2023-01-23T02:54:13.048Z,32.40
2023-01-23T02:56:15.396Z,32.60
2023-01-23T02:58:36.998Z,32.30
2023-01-23T03:00:41.814Z,32.60
2023-01-23T03:02:48.921Z,32.70
2023-01-23T03:04:50.695Z,32.70
2023-01-23T03:06:52.787Z,32.50
2023-01-23T03:08:56.087Z,32.50
2023-01-23T03:11:03.218Z,32.30
2023-01-23T03:13:07.285Z,32.40
2023-01-23T03:15:10.057Z,33.10
2023-01-23T03:17:14.678Z,32.40
2023-01-23T03:19:20.468Z,32.40
2023-01-23T03:21:22.221Z,32.20
2023-01-23T03:23:23.985Z,32.30
2023-01-23T03:25:25.712Z,32.40
2023-01-23T03:27:28.387Z,32.40
2023-01-23T03:29:50.344Z,32.30
2023-01-23T03:31:52.658Z,32.40
2023-01-23T03:33:54.446Z,32.40
2023-01-23T03:36:01.164Z,32.20
2023-01-23T03:38:03.839Z,32.10
2023-01-23T03:40:25.120Z,32.20
2023-01-23T03:42:28.191Z,32.20
2023-01-23T03:44:32.483Z,32.10
2023-01-23T03:46:36.162Z,32.10
2023-01-23T03:48:38.170Z,32.20
2023-01-23T03:50:39.865Z,32.40
2023-01-23T03:52:45.253Z,32.10
2023-01-23T03:54:49.715Z,32.00
2023-01-23T03:56:51.533Z,31.90
2023-01-23T03:59:22.594Z,31.90
2023-01-23T04:01:24.671Z,31.90
2023-01-23T04:03:29.361Z,32.00
2023-01-23T04:05:32.062Z,31.90
2023-01-23T04:07:35.004Z,32.10
2023-01-23T04:09:42.648Z,31.90
2023-01-23T04:11:48.032Z,31.90
2023-01-23T04:13:50.960Z,31.90
2023-01-23T04:15:53.041Z,31.90
2023-01-23T04:17:54.812Z,31.80
2023-01-23T04:19:59.812Z,31.80
2023-01-23T04:22:02.717Z,31.70
2023-01-23T04:24:09.789Z,31.80
2023-01-23T04:26:11.782Z,31.90
2023-01-23T04:28:16.602Z,31.90
2023-01-23T04:30:19.972Z,31.80
2023-01-23T04:32:21.878Z,31.90
2023-01-23T04:34:23.758Z,32.00
2023-01-23T04:36:27.558Z,32.00
2023-01-23T04:38:30.327Z,32.10
2023-01-23T04:40:36.219Z,32.10
2023-01-23T04:42:40.995Z,32.20
2023-01-23T04:44:46.345Z,32.30
2023-01-23T04:47:14.102Z,32.70
2023-01-23T04:49:16.283Z,32.60
2023-01-23T04:51:18.075Z,32.70
2023-01-23T04:53:20.782Z,32.70
2023-01-23T04:55:33.993Z,32.70
2023-01-23T04:57:45.488Z,32.70
2023-01-23T05:00:00.342Z,32.70
2023-01-23T05:02:02.781Z,32.70
2023-01-23T05:04:12.154Z,32.70
2023-01-23T05:06:13.920Z,32.70
2023-01-23T05:08:15.621Z,32.70
2023-01-23T05:10:23.525Z,32.80
2023-01-23T05:12:27.892Z,32.80
2023-01-23T05:14:31.965Z,32.70
2023-01-23T05:16:34.509Z,32.70
2023-01-23T05:18:53.882Z,32.80
2023-01-23T05:20:55.609Z,32.60
2023-01-23T05:22:58.625Z,32.50
2023-01-23T05:25:14.785Z,32.50
2023-01-23T05:27:16.593Z,32.40
2023-01-23T05:29:21.626Z,32.70
2023-01-23T05:31:31.891Z,32.70
2023-01-23T05:33:52.023Z,32.40
2023-01-23T05:35:59.446Z,32.60
2023-01-23T05:38:01.417Z,32.70
2023-01-23T05:40:04.724Z,32.30
2023-01-23T05:42:26.509Z,31.90
2023-01-23T05:44:37.855Z,31.70
2023-01-23T05:46:45.554Z,31.60
2023-01-23T05:48:52.174Z,31.30
2023-01-23T05:50:58.933Z,31.40
2023-01-23T05:53:04.335Z,31.40
2023-01-23T05:55:11.631Z,31.60
2023-01-23T05:57:15.343Z,31.60
2023-01-23T05:59:35.899Z,31.70
2023-01-23T06:01:49.795Z,31.60
2023-01-23T06:04:13.011Z,31.40
2023-01-23T06:06:31.045Z,31.30
2023-01-23T06:08:32.817Z,31.30
2023-01-23T06:10:37.597Z,31.30
2023-01-23T06:12:39.634Z,31.30
2023-01-23T06:14:43.822Z,31.50
2023-01-23T06:16:47.670Z,31.50
2023-01-23T06:18:49.354Z,31.50
2023-01-23T06:21:01.141Z,31.70
2023-01-23T06:23:03.605Z,31.90
2023-01-23T06:25:06.602Z,31.80
2023-01-23T06:27:08.810Z,31.80
2023-01-23T06:29:15.472Z,31.80
2023-01-23T06:31:17.637Z,31.80
2023-01-23T06:33:27.529Z,32.00
2023-01-23T06:35:31.080Z,31.90
2023-01-23T06:37:32.774Z,31.80
2023-01-23T06:39:34.497Z,32.00
2023-01-23T06:41:39.534Z,32.10
2023-01-23T06:43:43.809Z,32.20
2023-01-23T06:45:51.747Z,32.20
2023-01-23T06:47:54.206Z,31.90
2023-01-23T06:49:58.131Z,31.90
2023-01-23T06:52:01.141Z,32.10
2023-01-23T06:54:03.626Z,32.10
2023-01-23T06:56:07.646Z,32.00
2023-01-23T06:58:11.663Z,32.20
2023-01-23T07:00:16.414Z,32.10
2023-01-23T07:02:20.227Z,32.10
2023-01-23T07:04:26.020Z,32.10
2023-01-23T07:06:30.592Z,32.10
2023-01-23T07:08:33.696Z,32.40
2023-01-23T07:10:37.735Z,32.20
2023-01-23T07:12:39.458Z,32.20
2023-01-23T07:14:43.071Z,32.10
2023-01-23T07:16:47.813Z,32.00
2023-01-23T07:18:51.265Z,32.20
2023-01-23T07:20:53.123Z,32.30
2023-01-23T07:22:55.763Z,32.20
2023-01-23T07:24:57.466Z,32.20
2023-01-23T07:26:59.276Z,32.10
2023-01-23T07:29:01.046Z,32.40
2023-01-23T07:31:03.499Z,32.30
2023-01-23T07:33:07.862Z,32.80
2023-01-23T07:35:10.643Z,32.00
2023-01-23T07:37:12.455Z,32.10
2023-01-23T07:39:16.018Z,32.10
2023-01-23T07:41:17.640Z,32.30
2023-01-23T07:43:19.790Z,32.30
2023-01-23T07:45:22.844Z,32.20
2023-01-23T07:47:26.954Z,32.20
2023-01-23T07:49:28.864Z,31.80
2023-01-23T07:51:30.623Z,31.90
2023-01-23T07:53:32.443Z,31.80
2023-01-23T07:55:38.807Z,31.90
2023-01-23T07:57:43.371Z,31.80
2023-01-23T07:59:45.052Z,31.70
2023-01-23T08:01:48.862Z,31.80
2023-01-23T08:03:50.700Z,31.80
2023-01-23T08:05:53.192Z,31.70
2023-01-23T08:08:11.441Z,31.70
2023-01-23T08:10:14.719Z,31.70
2023-01-23T08:12:16.507Z,31.30
2023-01-23T08:14:18.388Z,31.20
2023-01-23T08:16:20.160Z,31.10
2023-01-23T08:18:21.995Z,31.80
2023-01-23T08:20:23.799Z,31.00
2023-01-23T08:22:27.873Z,30.80
2023-01-23T08:24:29.607Z,30.70
2023-01-23T08:26:31.251Z,30.70
2023-01-23T08:28:33.336Z,30.70
2023-01-23T08:30:35.182Z,30.60
2023-01-23T08:32:36.926Z,30.60
2023-01-23T08:34:38.667Z,30.60
2023-01-23T08:36:41.371Z,30.40
2023-01-23T08:38:43.168Z,30.60
2023-01-23T08:40:49.521Z,30.20
2023-01-23T08:42:54.065Z,30.10
2023-01-23T08:44:59.003Z,30.20
2023-01-23T08:47:03.067Z,30.00
2023-01-23T08:49:07.281Z,30.00
2023-01-23T08:51:12.674Z,30.00
2023-01-23T08:53:15.357Z,30.10
2023-01-23T08:55:17.133Z,30.00
2023-01-23T08:57:21.020Z,30.10
2023-01-23T08:59:22.750Z,30.10
2023-01-23T09:01:26.627Z,30.00
2023-01-23T09:03:28.568Z,30.00
2023-01-23T09:05:31.230Z,29.90
2023-01-23T09:07:37.496Z,30.00
2023-01-23T09:09:39.294Z,29.90
2023-01-23T09:11:41.084Z,30.00
2023-01-23T09:13:42.872Z,30.00
2023-01-23T09:15:44.599Z,30.00
2023-01-23T09:17:49.481Z,29.90
2023-01-23T09:19:51.607Z,29.80
2023-01-23T09:21:54.871Z,29.80
2023-01-23T09:23:57.038Z,29.70
2023-01-23T09:26:04.207Z,29.70
2023-01-23T09:28:06.092Z,29.60
2023-01-23T09:30:08.421Z,29.70
2023-01-23T09:32:10.316Z,29.60
2023-01-23T09:34:14.060Z,29.80
2023-01-23T09:36:16.983Z,29.70
2023-01-23T09:38:18.712Z,29.90
2023-01-23T09:40:24.239Z,30.00
2023-01-23T09:42:32.048Z,30.20
2023-01-23T09:44:36.842Z,30.20
2023-01-23T09:46:47.721Z,30.40
2023-01-23T09:48:58.138Z,30.40
2023-01-23T09:51:06.885Z,30.50
2023-01-23T09:53:18.699Z,30.60
2023-01-23T09:55:33.860Z,30.80
2023-01-23T09:57:43.698Z,30.80
2023-01-23T10:00:00.308Z,30.90
2023-01-23T10:02:20.048Z,30.80
2023-01-23T10:04:21.993Z,30.70
2023-01-23T10:06:27.851Z,30.70
2023-01-23T10:08:50.791Z,30.70
2023-01-23T10:11:07.120Z,30.70
2023-01-23T10:13:25.942Z,30.70
2023-01-23T10:15:36.333Z,30.60
2023-01-23T10:17:48.351Z,30.70
2023-01-23T10:20:07.556Z,30.60
2023-01-23T10:22:31.452Z,30.80
2023-01-23T10:24:51.882Z,30.40
2023-01-23T10:26:58.215Z,30.50
2023-01-23T10:29:31.525Z,30.50
2023-01-23T10:31:43.344Z,30.20
2023-01-23T10:33:54.475Z,30.00
2023-01-23T10:36:12.523Z,30.00
2023-01-23T10:38:46.360Z,29.80
2023-01-23T10:41:07.640Z,29.80
2023-01-23T10:43:23.340Z,29.80
2023-01-23T10:45:25.283Z,29.70
2023-01-23T10:47:43.106Z,29.70
2023-01-23T10:49:48.460Z,29.40
2023-01-23T10:51:52.909Z,29.40
2023-01-23T10:54:33.885Z,29.20
2023-01-23T10:56:45.571Z,29.00
2023-01-23T10:58:49.244Z,28.80
2023-01-23T11:00:51.023Z,28.90
2023-01-23T11:02:53.072Z,29.00
2023-01-23T11:04:57.818Z,29.10
2023-01-23T11:07:20.867Z,29.10
2023-01-23T11:09:22.513Z,29.30
2023-01-23T11:11:29.606Z,29.10
2023-01-23T11:13:31.569Z,29.20
2023-01-23T11:15:40.794Z,29.20
2023-01-23T11:17:46.035Z,29.10
2023-01-23T11:19:51.872Z,29.20
2023-01-23T11:22:06.861Z,29.10
2023-01-23T11:24:30.609Z,28.90
2023-01-23T11:26:39.631Z,28.80
2023-01-23T11:28:49.163Z,28.90
2023-01-23T11:31:12.446Z,28.90
2023-01-23T11:33:53.774Z,29.20
2023-01-23T11:36:29.967Z,29.00
2023-01-23T11:38:47.991Z,29.50
2023-01-23T11:40:54.212Z,28.80
2023-01-23T11:42:55.958Z,28.80
2023-01-23T11:45:01.178Z,28.70
2023-01-23T11:47:19.783Z,28.30
2023-01-23T11:49:46.520Z,28.60
2023-01-23T11:52:15.994Z,28.70
2023-01-23T11:55:03.545Z,28.70
2023-01-23T11:57:19.801Z,28.80
2023-01-23T11:59:23.606Z,28.90
2023-01-23T12:02:02.160Z,28.80
2023-01-23T12:04:35.053Z,28.70
2023-01-23T12:06:45.807Z,28.60
2023-01-23T12:09:04.504Z,28.80
2023-01-23T12:11:20.216Z,28.90
2023-01-23T12:13:55.862Z,28.70
2023-01-23T12:16:35.393Z,28.60
2023-01-23T12:18:43.126Z,28.70
2023-01-23T12:20:51.452Z,28.40
2023-01-23T12:23:10.438Z,28.20
2023-01-23T12:25:35.564Z,28.20
2023-01-23T12:27:57.836Z,28.40
2023-01-23T12:30:18.198Z,28.40
2023-01-23T12:32:21.303Z,28.20
2023-01-23T12:34:57.932Z,28.10
2023-01-23T12:37:29.093Z,28.70
2023-01-23T12:39:46.726Z,28.60
2023-01-23T12:42:03.919Z,28.50
2023-01-23T12:44:07.984Z,28.60
2023-01-23T12:46:16.971Z,28.60
2023-01-23T12:48:37.891Z,28.90
2023-01-23T12:50:43.316Z,28.90
2023-01-23T12:53:00.914Z,28.80
2023-01-23T12:55:18.053Z,28.60
2023-01-23T12:57:52.786Z,28.40
2023-01-23T13:00:10.109Z,28.40
2023-01-23T13:02:29.185Z,28.60
2023-01-23T13:04:55.951Z,28.90
2023-01-23T13:07:16.480Z,28.80
2023-01-23T13:09:43.098Z,28.60
2023-01-23T13:12:01.203Z,28.70
2023-01-23T13:14:02.981Z,28.90
2023-01-23T13:16:13.405Z,28.90
2023-01-23T13:18:28.464Z,28.80
2023-01-23T13:21:31.885Z,28.80
2023-01-23T13:23:37.869Z,28.90
2023-01-23T13:25:39.582Z,28.70
2023-01-23T13:27:47.336Z,28.50
2023-01-23T13:29:51.103Z,28.50
2023-01-23T13:32:25.292Z,28.50
2023-01-23T13:34:30.161Z,28.60
2023-01-23T13:36:36.895Z,28.70
2023-01-23T13:38:40.281Z,28.80
2023-01-23T13:41:04.985Z,28.60
2023-01-23T13:43:44.729Z,28.80
2023-01-23T13:45:48.786Z,28.50
2023-01-23T14:20:25.598Z,28.80
2023-01-23T14:22:29.718Z,28.80
2023-01-23T14:24:45.048Z,28.90
2023-01-23T14:26:52.410Z,28.90
2023-01-23T14:29:03.099Z,29.00
2023-01-23T14:31:07.136Z,28.90
2023-01-23T14:33:16.847Z,28.90
2023-01-23T14:35:21.048Z,29.00
2023-01-23T14:37:23.333Z,28.90
2023-01-23T14:39:30.237Z,29.10
2023-01-23T14:41:41.360Z,29.20
2023-01-23T14:43:44.158Z,29.30
2023-01-23T14:45:54.936Z,29.30
2023-01-23T14:48:05.651Z,29.30
2023-01-23T14:50:19.123Z,29.30
2023-01-23T14:52:24.228Z,29.20
2023-01-23T14:54:29.648Z,29.30
2023-01-23T14:56:37.947Z,29.40
2023-01-23T14:58:40.142Z,29.30
2023-01-23T15:00:42.443Z,29.30
2023-01-23T15:02:45.859Z,29.40
2023-01-23T15:05:13.097Z,29.40
2023-01-23T15:07:17.809Z,29.40
2023-01-23T15:09:33.455Z,29.40
2023-01-23T15:11:35.646Z,29.40
2023-01-23T15:13:44.071Z,29.50
2023-01-23T15:15:57.012Z,29.60
2023-01-23T15:18:01.490Z,29.60
2023-01-23T15:20:06.342Z,29.60
2023-01-23T15:22:22.005Z,29.70
2023-01-23T15:24:29.754Z,29.70
2023-01-23T15:26:40.171Z,29.80
2023-01-23T15:28:50.737Z,30.30
2023-01-23T15:30:52.544Z,29.60
2023-01-23T15:32:54.803Z,29.60
2023-01-23T15:34:59.131Z,29.60
2023-01-23T15:37:12.895Z,29.70
2023-01-23T15:39:28.209Z,29.80
2023-01-23T15:41:43.856Z,29.90
2023-01-23T15:43:45.637Z,29.90
2023-01-23T15:45:47.467Z,29.90
2023-01-23T15:47:49.204Z,29.90
2023-01-23T15:49:50.953Z,29.90
2023-01-23T15:51:54.796Z,30.00
2023-01-23T15:53:56.765Z,30.00
2023-01-23T15:55:59.238Z,30.00
2023-01-23T15:58:03.072Z,30.00
2023-01-23T16:00:24.850Z,30.00
2023-01-23T16:02:32.347Z,30.00
2023-01-23T16:04:35.385Z,30.00
2023-01-23T16:06:38.411Z,30.20
2023-01-23T16:08:40.277Z,30.10
2023-01-23T16:10:42.741Z,30.30
2023-01-23T16:12:49.782Z,30.40
2023-01-23T16:14:51.773Z,30.40
2023-01-23T16:16:56.688Z,30.40
2023-01-23T16:19:01.895Z,30.30
2023-01-23T16:21:03.853Z,30.40
2023-01-23T16:23:15.125Z,30.40
2023-01-23T16:25:41.901Z,30.40
2023-01-23T16:27:45.064Z,30.30
2023-01-23T16:29:49.309Z,30.30
2023-01-23T16:31:51.362Z,30.30
2023-01-23T16:33:53.104Z,30.40
2023-01-23T16:35:55.456Z,30.40
2023-01-23T16:37:57.262Z,30.40
2023-01-23T16:39:58.962Z,30.50
2023-01-23T16:42:00.898Z,30.60
2023-01-23T16:44:02.545Z,30.50
2023-01-23T16:46:04.400Z,30.60
2023-01-23T16:48:07.601Z,30.60
2023-01-23T16:50:18.578Z,30.70
2023-01-23T16:52:23.821Z,30.70
2023-01-23T16:54:34.589Z,30.50
2023-01-23T16:56:38.924Z,30.50
2023-01-23T16:58:41.786Z,30.80
2023-01-23T17:00:44.105Z,30.70
2023-01-23T17:02:51.908Z,30.80
2023-01-23T17:04:53.584Z,30.70
2023-01-23T17:06:55.351Z,30.80
2023-01-23T17:08:57.162Z,31.00
2023-01-23T17:11:04.823Z,30.80
2023-01-23T17:13:07.813Z,30.90
2023-01-23T17:15:29.897Z,31.00
2023-01-23T17:17:36.112Z,31.30
2023-01-23T17:19:44.155Z,31.30
2023-01-23T17:21:46.271Z,31.30
2023-01-23T17:23:48.169Z,31.40
2023-01-23T17:26:00.327Z,31.60
2023-01-23T17:28:12.897Z,31.60
2023-01-23T17:30:23.313Z,31.70
2023-01-23T17:32:35.362Z,31.80
2023-01-23T17:34:48.988Z,31.80
2023-01-23T17:36:54.255Z,31.90
2023-01-23T17:38:58.220Z,31.90
2023-01-23T17:41:00.117Z,31.80
2023-01-23T17:43:01.881Z,31.90
2023-01-23T17:45:03.947Z,31.90
2023-01-23T17:47:06.871Z,32.00
2023-01-23T17:49:30.862Z,32.00
2023-01-23T17:51:33.529Z,32.20
2023-01-23T17:53:36.648Z,32.20
2023-01-23T17:55:43.571Z,32.10
2023-01-23T17:57:49.590Z,32.20
2023-01-23T17:59:56.493Z,32.10
2023-01-23T18:02:00.904Z,32.10
2023-01-23T18:04:02.912Z,32.00
2023-01-23T18:06:09.911Z,31.90
2023-01-23T18:08:16.631Z,31.80
2023-01-23T18:10:18.620Z,31.90
2023-01-23T18:12:45.954Z,31.80
2023-01-23T18:14:56.053Z,31.60
2023-01-23T18:16:57.945Z,31.60
2023-01-23T18:19:18.014Z,31.40
2023-01-23T18:21:22.924Z,31.30
2023-01-23T18:23:27.915Z,31.40
2023-01-23T18:25:31.132Z,31.40
2023-01-23T18:27:40.363Z,31.40
2023-01-23T18:30:16.681Z,31.50
2023-01-23T18:32:23.876Z,31.60
2023-01-23T18:34:50.226Z,31.70
2023-01-23T18:37:33.355Z,31.50
2023-01-23T18:39:47.674Z,31.60
2023-01-23T18:42:24.511Z,31.80
2023-01-23T18:44:27.141Z,31.80
2023-01-23T18:46:29.003Z,31.60
2023-01-23T18:48:31.203Z,31.80
2023-01-23T18:50:33.154Z,31.90
2023-01-23T18:52:54.414Z,31.90
2023-01-23T18:55:23.207Z,31.90
2023-01-23T18:57:41.156Z,31.80
2023-01-23T19:00:06.238Z,31.80
2023-01-23T19:02:16.457Z,31.60
2023-01-23T19:04:20.295Z,31.80
2023-01-23T19:06:26.302Z,31.80
2023-01-23T19:08:31.453Z,31.80
2023-01-23T19:10:48.954Z,31.90
2023-01-23T19:12:50.740Z,32.00
2023-01-23T19:15:20.359Z,31.90
2023-01-23T19:17:42.436Z,32.00
2023-01-23T19:20:23.410Z,32.00
2023-01-23T19:22:27.112Z,31.80
2023-01-23T19:24:29.082Z,31.60
2023-01-23T19:26:35.227Z,31.80
2023-01-23T19:28:38.565Z,31.60
2023-01-23T19:30:42.263Z,31.70
2023-01-23T19:32:49.465Z,31.70
2023-01-23T19:34:51.201Z,31.80
2023-01-23T19:36:55.311Z,31.90
2023-01-23T19:39:02.954Z,32.00
2023-01-23T19:41:06.206Z,32.00
2023-01-23T19:43:16.735Z,31.80
2023-01-23T19:45:20.348Z,31.80
2023-01-23T19:47:24.606Z,31.80
2023-01-23T19:49:26.313Z,31.80
2023-01-23T19:51:34.107Z,31.80
2023-01-23T19:53:35.861Z,31.90
2023-01-23T19:55:38.461Z,32.00
2023-01-23T19:57:40.232Z,32.00
2023-01-23T19:59:43.827Z,31.90
2023-01-23T20:01:49.476Z,31.90
2023-01-23T20:03:51.844Z,32.00
2023-01-23T20:05:55.659Z,32.10
2023-01-23T20:07:58.664Z,32.20
2023-01-23T20:10:00.439Z,31.90
2023-01-23T20:12:02.392Z,31.90
2023-01-23T20:14:04.328Z,31.90
2023-01-23T20:16:20.727Z,32.00
2023-01-23T20:18:22.629Z,32.00
2023-01-23T20:20:24.703Z,31.70
2023-01-23T20:22:26.586Z,31.70
2023-01-23T20:24:28.304Z,31.70
2023-01-23T20:26:29.995Z,31.60
2023-01-23T20:28:31.738Z,31.70
2023-01-23T20:30:33.618Z,31.80
2023-01-23T20:32:35.397Z,31.80
2023-01-23T20:34:37.224Z,31.60
2023-01-23T20:36:38.931Z,31.50
2023-01-23T20:38:41.274Z,31.40
2023-01-23T20:40:43.009Z,31.30
2023-01-23T20:42:46.995Z,31.30
2023-01-23T20:44:48.749Z,31.30
2023-01-23T20:46:53.511Z,31.40
2023-01-23T20:48:55.710Z,31.40
2023-01-23T20:50:57.540Z,31.40
2023-01-23T20:53:18.898Z,31.30
2023-01-23T20:55:20.970Z,31.30
2023-01-23T20:57:22.910Z,31.50
2023-01-23T20:59:26.192Z,31.60
2023-01-23T21:01:51.499Z,31.70
2023-01-23T21:03:53.546Z,31.70
2023-01-23T21:05:56.178Z,31.70
2023-01-23T21:07:57.964Z,31.80
2023-01-23T21:09:59.868Z,31.80
2023-01-23T21:12:01.579Z,31.80
2023-01-23T21:14:03.284Z,32.00
2023-01-23T21:16:13.735Z,32.00
2023-01-23T21:18:17.703Z,32.00
2023-01-23T21:20:19.468Z,32.20
2023-01-23T21:22:21.181Z,32.20
2023-01-23T21:24:23.337Z,32.30
2023-01-23T21:26:28.839Z,32.40
2023-01-23T21:28:35.117Z,32.40
2023-01-23T21:30:40.126Z,32.80
2023-01-23T21:32:42.291Z,32.70
2023-01-23T21:34:44.121Z,32.50
2023-01-23T21:36:45.773Z,32.50
2023-01-23T21:38:48.006Z,32.80
2023-01-23T21:40:49.771Z,32.80
2023-01-23T21:42:51.478Z,32.80
2023-01-23T21:44:55.986Z,32.80
2023-01-23T21:46:57.652Z,33.00
2023-01-23T21:48:59.329Z,32.90
2023-01-23T21:51:08.260Z,32.80
2023-01-23T21:53:12.883Z,32.70
2023-01-23T21:55:17.297Z,32.90
2023-01-23T21:57:21.811Z,33.00
2023-01-23T21:59:23.667Z,32.60
2023-01-23T22:01:32.984Z,32.50
2023-01-23T22:03:37.446Z,32.70
2023-01-23T22:05:46.435Z,32.70
2023-01-23T22:07:50.274Z,32.70
2023-01-23T22:09:55.878Z,32.80
2023-01-23T22:11:57.725Z,32.70
2023-01-23T22:13:59.846Z,32.50
2023-01-23T22:16:04.668Z,32.50
2023-01-23T22:18:06.546Z,32.50
2023-01-23T22:20:10.604Z,32.60
2023-01-23T22:22:15.285Z,32.40
2023-01-23T22:24:17.291Z,32.70
2023-01-23T22:26:21.960Z,32.60
2023-01-23T22:28:26.284Z,32.50
2023-01-23T22:30:28.160Z,32.60
2023-01-23T22:32:34.053Z,32.70
2023-01-23T22:34:35.786Z,32.60
2023-01-23T22:36:40.152Z,32.80
2023-01-23T22:38:41.999Z,32.70
2023-01-23T22:40:43.902Z,32.70
2023-01-23T22:42:45.618Z,32.90
2023-01-23T22:44:47.347Z,32.80
2023-01-23T22:46:53.243Z,32.90
2023-01-23T22:49:04.661Z,32.90
2023-01-23T22:51:12.751Z,32.80
2023-01-23T22:53:14.677Z,33.00
2023-01-23T22:55:16.903Z,32.90
2023-01-23T22:57:21.162Z,32.90
2023-01-23T22:59:23.113Z,32.70
2023-01-23T23:01:27.116Z,33.00
2023-01-23T23:03:34.864Z,33.10
2023-01-23T23:05:36.618Z,33.30
2023-01-23T23:07:41.034Z,33.00
2023-01-23T23:09:46.361Z,33.20
2023-01-23T23:11:51.320Z,33.20
2023-01-23T23:13:54.109Z,33.20
2023-01-23T23:15:58.124Z,33.20
2023-01-23T23:18:02.407Z,32.90
2023-01-23T23:20:05.546Z,33.20
2023-01-23T23:22:10.616Z,33.10
2023-01-23T23:24:13.525Z,32.90
2023-01-23T23:26:16.603Z,32.70
2023-01-23T23:28:18.260Z,32.70
2023-01-23T23:30:22.221Z,32.60
2023-01-23T23:32:24.082Z,32.50
2023-01-23T23:34:25.784Z,32.70
2023-01-23T23:36:27.758Z,32.70
2023-01-23T23:38:29.791Z,32.80
2023-01-23T23:40:31.463Z,32.70
2023-01-23T23:42:33.115Z,32.70
2023-01-23T23:44:34.894Z,32.60
2023-01-23T23:46:36.585Z,32.70
2023-01-23T23:48:40.949Z,32.50
2023-01-23T23:50:43.144Z,32.70
2023-01-23T23:52:44.826Z,32.90
2023-01-23T23:54:46.509Z,32.90
2023-01-23T23:56:48.398Z,33.00
2023-01-23T23:58:50.806Z,32.60
